Time;durP1;ratioP1;P1;durP2;ratioP2;P2;SDS_P1;SDS_P2;PMS_P1;PMS_P2;Temp;Humidity;BMP_temperature;BMP_pressure;BME280_temperature;BME280_humidity;BME280_pressure;Samples;Min_cycle;Max_cycle;Signal;HPM_P1;HPM_P2
2022/04/10 00:02:16;;;;;;;11.93;6.22;;;;;;;3.56;71.67;101607.69;3588016;39;20116;-62
2022/04/10 00:04:41;;;;;;;14.68;6.40;;;;;;;3.66;72.11;101627.84;3581908;39;20063;-63
2022/04/10 00:07:07;;;;;;;13.98;6.50;;;;;;;3.69;72.27;101628.66;3592156;39;20450;-62
2022/04/10 00:09:32;;;;;;;12.45;6.10;;;;;;;3.69;72.65;101627.78;3581903;39;20752;-63
2022/04/10 00:11:58;;;;;;;13.30;6.32;;;;;;;3.68;72.15;101621.59;3593523;39;20047;-63
2022/04/10 00:14:24;;;;;;;12.48;6.72;;;;;;;3.69;71.93;101623.34;3584797;39;20099;-61
2022/04/10 00:16:50;;;;;;;11.02;6.60;;;;;;;3.72;72.58;101633.03;3587418;39;20066;-62
2022/04/10 00:19:16;;;;;;;16.88;6.53;;;;;;;3.66;72.61;101606.59;3583032;39;20060;-61
2022/04/10 00:21:42;;;;;;;12.75;6.65;;;;;;;3.65;71.59;101604.84;3581734;39;20070;-63
2022/04/10 00:24:08;;;;;;;12.68;6.45;;;;;;;3.74;72.15;101623.22;3592560;39;20051;-63
2022/04/10 00:26:34;;;;;;;13.35;7.22;;;;;;;3.66;72.10;101606.59;3580466;39;20988;-62
2022/04/10 00:29:00;;;;;;;10.60;6.32;;;;;;;3.71;72.15;101621.53;3592708;39;20055;-62
2022/04/10 00:31:25;;;;;;;13.27;6.53;;;;;;;3.69;72.58;101617.16;3581219;39;20061;-62
2022/04/10 00:33:51;;;;;;;12.82;7.05;;;;;;;3.57;72.09;101601.44;3580470;39;20047;-63
2022/04/10 00:36:17;;;;;;;15.52;6.93;;;;;;;3.66;71.88;101618.09;3590482;39;20054;-62
2022/04/10 00:38:42;;;;;;;10.50;6.53;;;;;;;3.57;72.24;101612.09;3585585;39;20059;-62
2022/04/10 00:41:08;;;;;;;11.45;6.97;;;;;;;3.54;73.03;101601.50;3593541;39;20116;-63
2022/04/10 00:43:36;;;;;;;15.65;7.68;;;;;;;3.59;72.43;101621.78;3584541;39;20220;-63
2022/04/10 00:46:02;;;;;;;16.73;7.60;;;;;;;3.52;72.14;101605.97;3588797;39;20176;-64
2022/04/10 00:48:27;;;;;;;16.40;7.97;;;;;;;3.54;72.38;101617.47;3586052;39;20043;-61
2022/04/10 00:53:42;;;;;;;13.20;7.78;;;;;;;3.41;72.93;101600.88;3588485;39;21016;-62
2022/04/10 00:56:08;;;;;;;13.25;8.45;;;;;;;3.44;72.93;101599.03;3594970;39;20087;-62
2022/04/10 00:58:34;;;;;;;14.77;7.88;;;;;;;3.31;73.39;101581.59;3582302;39;20058;-63
2022/04/10 01:01:00;;;;;;;14.40;7.97;;;;;;;3.43;73.06;101602.63;3588223;39;20056;-63
2022/04/10 01:03:25;;;;;;;15.30;8.38;;;;;;;3.26;73.75;101576.34;3586807;39;20051;-61
2022/04/10 01:05:51;;;;;;;14.43;8.65;;;;;;;3.28;74.09;101584.31;3592049;39;20500;-63
2022/04/10 01:08:18;;;;;;;12.48;8.02;;;;;;;3.45;74.10;101616.72;3582048;39;20078;-61
2022/04/10 01:10:44;;;;;;;16.80;8.90;;;;;;;3.26;73.73;101586.09;3590800;39;20066;-63
2022/04/10 01:13:11;;;;;;;18.88;8.93;;;;;;;3.24;73.77;101582.63;3585017;39;20081;-65
2022/04/10 01:15:38;;;;;;;14.13;8.60;;;;;;;3.12;73.87;101562.47;3578146;39;20056;-63
2022/04/10 01:18:06;;;;;;;16.42;9.02;;;;;;;3.34;73.71;101594.81;3598520;39;20338;-62
2022/04/10 01:20:33;;;;;;;17.20;9.75;;;;;;;3.41;73.82;101601.75;3570913;39;20051;-64
2022/04/10 01:23:00;;;;;;;14.48;9.07;;;;;;;3.51;73.51;101612.22;3588659;39;20063;-61
2022/04/10 01:25:26;;;;;;;16.15;9.32;;;;;;;3.55;73.78;101606.78;3593557;39;20040;-61
2022/04/10 01:27:51;;;;;;;15.90;9.00;;;;;;;3.50;74.28;101598.03;3589862;39;20130;-63
2022/04/10 01:30:17;;;;;;;13.50;9.13;;;;;;;3.62;74.09;101615.53;3593813;39;20066;-61
2022/04/10 01:32:43;;;;;;;15.88;9.20;;;;;;;3.67;74.37;101614.50;3586210;39;20762;-63
2022/04/10 01:35:10;;;;;;;14.15;9.23;;;;;;;3.22;73.81;101525.97;3585898;39;20039;-61
2022/04/10 01:37:37;;;;;;;15.75;9.20;;;;;;;3.74;73.89;101615.25;3592169;39;20052;-62
2022/04/10 01:40:04;;;;;;;14.43;9.50;;;;;;;3.68;73.50;101600.34;3586363;39;20063;-61
2022/04/10 01:42:29;;;;;;;15.38;9.00;;;;;;;3.76;73.49;101597.50;3597546;39;20721;-61
2022/04/10 01:44:55;;;;;;;18.73;9.35;;;;;;;3.70;73.19;101597.63;3589669;39;20104;-61
2022/04/10 01:47:21;;;;;;;20.35;9.52;;;;;;;3.79;73.45;101610.72;3587824;39;20059;-62
2022/04/10 01:49:46;;;;;;;15.02;9.20;;;;;;;3.72;73.35;101595.81;3593154;39;20063;-63
2022/04/10 01:52:12;;;;;;;16.08;9.10;;;;;;;3.59;73.14;101581.03;3586713;39;20060;-62
2022/04/10 01:54:38;;;;;;;17.65;9.00;;;;;;;3.86;72.66;101630.09;3585302;39;20386;-63
2022/04/10 01:57:06;;;;;;;19.65;9.02;;;;;;;3.81;73.16;101616.03;3591748;39;20077;-62
2022/04/10 01:59:32;;;;;;;16.23;9.38;;;;;;;3.78;72.45;101626.72;3586934;39;22848;-63
2022/04/10 02:01:58;;;;;;;17.70;9.80;;;;;;;3.84;72.96;101638.13;3592375;39;20040;-62
2022/04/10 02:04:23;;;;;;;14.57;9.70;;;;;;;3.81;72.85;101630.19;3586244;39;20082;-62
2022/04/10 02:06:49;;;;;;;15.27;9.70;;;;;;;3.81;73.42;101642.63;3587360;39;20101;-63
2022/04/10 02:09:15;;;;;;;17.52;9.95;;;;;;;3.66;73.10;101619.88;3585998;39;20059;-61
2022/04/10 02:11:40;;;;;;;18.65;9.57;;;;;;;3.62;72.39;101620.84;3594221;39;20064;-63
2022/04/10 02:14:07;;;;;;;16.92;10.02;;;;;;;3.68;72.64;101631.38;3593506;39;20062;-61
2022/04/10 02:16:32;;;;;;;15.85;9.70;;;;;;;3.53;72.75;101610.41;3592499;39;20064;-62
2022/04/10 02:18:58;;;;;;;15.23;9.70;;;;;;;3.02;72.94;101540.53;3590185;39;20053;-61
2022/04/10 02:21:23;;;;;;;19.63;10.38;;;;;;;3.49;72.98;101615.78;3593106;39;20543;-63
2022/04/10 02:23:49;;;;;;;14.75;9.88;;;;;;;3.50;73.14;101629.94;3589421;39;20063;-62
2022/04/10 02:26:15;;;;;;;15.55;10.20;;;;;;;3.44;72.88;101622.09;3580967;39;20047;-62
2022/04/10 02:28:41;;;;;;;15.80;9.88;;;;;;;3.32;73.49;101620.53;3592447;39;20322;-63
2022/04/10 02:31:08;;;;;;;18.38;10.20;;;;;;;3.24;73.17;101625.13;3588291;39;20056;-62
2022/04/10 02:33:34;;;;;;;14.38;9.95;;;;;;;3.26;72.94;101628.63;3585137;39;20166;-62
2022/04/10 02:36:00;;;;;;;14.27;10.00;;;;;;;3.19;72.29;101630.50;3591944;39;20055;-62
2022/04/10 02:38:26;;;;;;;17.65;9.50;;;;;;;3.11;72.80;101616.50;3585922;39;20099;-63
2022/04/10 02:40:52;;;;;;;15.55;10.07;;;;;;;3.07;72.93;101619.25;3583668;39;20093;-62
2022/04/10 02:43:17;;;;;;;16.17;9.20;;;;;;;2.87;72.71;101593.91;3588885;39;20063;-62
2022/04/10 02:45:43;;;;;;;15.95;9.90;;;;;;;2.97;73.18;101622.06;3591932;39;20313;-61
2022/04/10 02:48:10;;;;;;;18.92;9.80;;;;;;;2.49;73.21;101550.31;3581897;39;20055;-63
2022/04/10 02:50:38;;;;;;;16.58;10.73;;;;;;;2.95;74.20;101646.88;3578408;39;20057;-62
2022/04/10 02:53:04;;;;;;;18.00;10.35;;;;;;;2.95;74.39;101660.16;3589207;39;20390;-62
2022/04/10 02:55:29;;;;;;;20.70;10.98;;;;;;;2.88;74.57;101651.41;3586691;39;20042;-61
2022/04/10 02:57:55;;;;;;;17.65;10.50;;;;;;;2.82;73.79;101648.00;3589164;39;20063;-63
2022/04/10 03:00:21;;;;;;;19.65;10.38;;;;;;;2.73;74.84;101651.69;3593216;39;20052;-61
2022/04/10 03:02:46;;;;;;;19.33;11.00;;;;;;;2.75;74.05;101653.41;3585688;39;20209;-62
2022/04/10 03:05:13;;;;;;;20.45;10.70;;;;;;;2.75;75.85;101660.50;3585214;39;20342;-64
2022/04/10 03:07:39;;;;;;;19.60;11.05;;;;;;;2.64;75.92;101649.19;3584713;39;20071;-62
2022/04/10 03:10:05;;;;;;;16.27;11.38;;;;;;;2.68;75.17;101653.53;3592001;39;20071;-62
2022/04/10 03:12:30;;;;;;;20.38;10.98;;;;;;;2.62;74.76;101656.28;3581742;39;20055;-61
2022/04/10 03:14:56;;;;;;;16.63;11.35;;;;;;;2.36;75.10;101617.75;3593374;39;20059;-63
2022/04/10 03:17:22;;;;;;;19.25;11.10;;;;;;;2.48;75.55;101645.91;3588208;39;20051;-62
2022/04/10 03:19:48;;;;;;;19.85;11.40;;;;;;;2.52;75.08;101663.50;3583140;39;20116;-63
2022/04/10 03:22:13;;;;;;;15.48;10.43;;;;;;;2.49;75.02;101663.56;3597769;39;20422;-65
2022/04/10 03:24:39;;;;;;;18.45;11.48;;;;;;;2.38;74.93;101653.13;3589054;39;20064;-62
2022/04/10 03:27:05;;;;;;;16.80;11.02;;;;;;;2.46;76.03;101667.13;3575044;39;20103;-62
2022/04/10 03:29:31;;;;;;;19.15;11.45;;;;;;;1.65;75.46;101537.47;3591860;39;20499;-61
2022/04/10 03:31:57;;;;;;;18.25;11.15;;;;;;;2.41;75.14;101673.41;3595085;39;20087;-62
2022/04/10 03:34:23;;;;;;;20.10;11.05;;;;;;;2.32;76.27;101664.69;3584070;39;20052;-61
2022/04/10 03:36:48;;;;;;;16.38;10.73;;;;;;;2.37;75.24;101675.22;3586394;39;20047;-64
2022/04/10 03:39:14;;;;;;;18.48;11.15;;;;;;;2.32;75.37;101674.44;3587735;39;20054;-63
2022/04/10 03:41:39;;;;;;;15.27;11.55;;;;;;;2.30;76.16;101677.09;3581969;39;20063;-62
2022/04/10 03:44:06;;;;;;;19.63;11.32;;;;;;;2.17;75.91;101658.72;3597914;39;20059;-62
2022/04/10 03:46:31;;;;;;;16.70;11.18;;;;;;;2.20;75.37;101674.59;3595305;39;20043;-62
2022/04/10 03:48:57;;;;;;;19.38;11.73;;;;;;;2.18;76.42;101682.56;3589830;39;20110;-64
2022/04/10 03:51:22;;;;;;;18.08;11.43;;;;;;;2.16;75.71;101680.81;3586584;39;20051;-62
2022/04/10 03:53:48;;;;;;;16.35;10.77;;;;;;;2.14;76.26;101680.84;3595034;39;20662;-63
2022/04/10 03:56:14;;;;;;;15.02;10.52;;;;;;;2.09;76.03;101677.38;3589434;39;20379;-63
2022/04/10 03:58:40;;;;;;;18.83;11.10;;;;;;;1.94;76.17;101653.72;3583097;39;20120;-62
2022/04/10 04:01:05;;;;;;;18.90;11.40;;;;;;;2.11;76.60;101693.28;3596456;39;20058;-63
2022/04/10 04:03:31;;;;;;;19.55;11.30;;;;;;;1.93;75.05;101660.78;3589136;39;20063;-62
2022/04/10 04:05:57;;;;;;;17.88;10.93;;;;;;;2.01;75.84;101668.66;3583432;39;20063;-64
2022/04/10 04:08:22;;;;;;;20.67;12.20;;;;;;;2.11;76.11;101685.31;3595864;39;20052;-62
2022/04/10 04:10:48;;;;;;;16.27;11.10;;;;;;;2.08;77.15;101686.22;3588923;39;20044;-63
2022/04/10 04:13:14;;;;;;;18.65;11.20;;;;;;;2.07;75.88;101684.50;3584785;39;20364;-63
2022/04/10 04:15:39;;;;;;;17.90;10.40;;;;;;;1.98;76.06;101674.88;3594133;39;20078;-62
2022/04/10 04:18:05;;;;;;;19.38;10.85;;;;;;;2.07;75.41;101690.66;3589586;39;20036;-62
2022/04/10 04:20:31;;;;;;;15.77;10.07;;;;;;;2.07;75.36;101690.66;3585036;39;20063;-62
2022/04/10 04:22:56;;;;;;;14.40;10.50;;;;;;;2.01;75.71;101680.13;3584279;39;20112;-62
2022/04/10 04:25:22;;;;;;;16.33;10.07;;;;;;;2.08;76.11;101692.41;3586040;39;20051;-61
2022/04/10 04:27:48;;;;;;;14.77;10.00;;;;;;;2.01;75.27;101674.81;3587773;39;20051;-63
2022/04/10 04:30:13;;;;;;;14.15;9.35;;;;;;;2.03;76.29;101681.00;3584538;39;20048;-62
2022/04/10 04:32:39;;;;;;;12.25;9.10;;;;;;;2.14;75.85;101690.59;3592463;39;20086;-63
2022/04/10 04:35:06;;;;;;;17.38;9.35;;;;;;;2.15;75.44;101687.91;3590757;39;20554;-63
2022/04/10 04:37:31;;;;;;;14.57;9.95;;;;;;;2.04;75.07;101680.09;3588821;39;20047;-61
2022/04/10 04:39:57;;;;;;;15.02;10.32;;;;;;;2.16;75.83;101699.38;3596517;39;20053;-63
2022/04/10 04:42:22;;;;;;;14.30;9.68;;;;;;;2.14;75.51;101693.25;3592807;39;20055;-61
2022/04/10 04:44:48;;;;;;;16.33;9.75;;;;;;;1.90;75.38;101644.91;3579618;39;20067;-62
2022/04/10 04:47:13;;;;;;;11.35;8.77;;;;;;;2.12;75.16;101695.03;3594096;39;20056;-63
2022/04/10 04:49:39;;;;;;;13.05;8.60;;;;;;;2.19;74.90;101704.66;3583987;39;20147;-63
2022/04/10 04:52:05;;;;;;;14.95;10.25;;;;;;;2.14;74.81;101693.25;3595189;39;20066;-63
2022/04/10 04:54:31;;;;;;;16.30;9.45;;;;;;;2.05;73.97;101679.19;3584799;39;20055;-61
2022/04/10 04:56:56;;;;;;;15.73;9.35;;;;;;;2.13;74.30;101694.16;3582331;39;20063;-62
2022/04/10 04:59:22;;;;;;;19.35;9.40;;;;;;;2.14;74.84;101702.06;3579143;39;20058;-61
2022/04/10 05:01:47;;;;;;;19.13;8.93;;;;;;;2.11;73.90;101698.59;3587378;39;20055;-64
2022/04/10 05:04:13;;;;;;;16.33;9.02;;;;;;;2.12;75.06;101710.94;3592112;39;20402;-63
2022/04/10 05:06:39;;;;;;;14.82;9.30;;;;;;;2.13;75.36;101718.00;3576285;39;20063;-63
2022/04/10 05:09:06;;;;;;;17.10;9.65;;;;;;;2.09;75.23;101719.81;3578735;39;20079;-63
2022/04/10 05:11:32;;;;;;;12.80;9.27;;;;;;;2.08;76.21;101723.34;3588954;39;20059;-62
2022/04/10 05:13:58;;;;;;;13.25;9.15;;;;;;;1.97;75.37;101710.25;3587270;39;20134;-62
2022/04/10 05:16:23;;;;;;;19.08;9.35;;;;;;;2.07;75.54;101722.47;3581385;39;20074;-62
2022/04/10 05:18:50;;;;;;;14.25;9.93;;;;;;;2.01;75.54;101722.56;3592694;39;20058;-63
2022/04/10 05:21:16;;;;;;;17.00;8.77;;;;;;;2.09;75.82;101726.00;3579384;39;20047;-62
2022/04/10 05:23:42;;;;;;;16.63;8.95;;;;;;;2.09;75.58;101731.31;3580107;39;20076;-64
2022/04/10 05:26:08;;;;;;;14.48;8.57;;;;;;;2.09;74.93;101728.66;3587018;39;20051;-62
2022/04/10 05:28:34;;;;;;;13.57;9.23;;;;;;;2.03;75.53;101709.25;3590573;39;20054;-62
2022/04/10 05:31:04;;;;;;;15.70;9.20;;;;;;;1.89;74.58;101690.88;3576867;39;20060;-63
2022/04/10 05:33:33;;;;;;;15.77;9.20;;;;;;;2.28;75.37;101741.66;3591528;39;20063;-61
2022/04/10 05:35:58;;;;;;;10.85;8.93;;;;;;;2.38;74.89;101743.31;3622641;22;20386;-61
2022/04/10 05:38:24;;;;;;;12.60;8.70;;;;;;;2.48;74.40;101747.59;3593718;39;20051;-60
2022/04/10 05:40:53;;;;;;;13.20;9.18;;;;;;;2.61;74.02;101747.44;3585575;39;20238;-61
2022/04/10 05:43:23;;;;;;;14.63;10.73;;;;;;;2.71;74.47;101751.72;3592927;39;20386;-60
2022/04/10 05:45:52;;;;;;;13.73;9.40;;;;;;;2.56;74.22;101720.94;3590910;39;20051;-61
2022/04/10 05:48:18;;;;;;;15.02;8.65;;;;;;;2.83;75.30;101753.31;3583570;39;20582;-61
2022/04/10 05:50:44;;;;;;;15.13;8.23;;;;;;;2.29;75.57;101654.13;3590883;39;20097;-61
2022/04/10 05:53:10;;;;;;;12.02;7.85;;;;;;;2.54;74.72;101686.47;3586674;39;20075;-63
2022/04/10 05:55:36;;;;;;;12.38;8.45;;;;;;;3.10;74.66;101768.81;3588423;39;20055;-62
2022/04/10 05:58:03;;;;;;;10.75;7.80;;;;;;;3.22;74.76;101767.75;3585784;39;20059;-62
2022/04/10 06:00:29;;;;;;;12.10;7.15;;;;;;;3.11;74.95;101738.72;3584199;39;20128;-62
2022/04/10 06:02:55;;;;;;;15.63;8.18;;;;;;;3.38;74.49;101777.22;3578310;39;20066;-62
2022/04/10 06:05:22;;;;;;;12.90;7.28;;;;;;;3.47;74.80;101779.72;3592072;39;20055;-61
2022/04/10 06:07:48;;;;;;;13.68;8.55;;;;;;;3.54;74.43;101774.28;3585758;39;20064;-61
2022/04/10 06:10:15;;;;;;;14.55;8.65;;;;;;;3.74;73.97;101793.41;3592308;39;20108;-63
2022/04/10 06:12:41;;;;;;;15.30;8.38;;;;;;;3.90;74.78;101778.97;3582421;39;20069;-61
2022/04/10 06:15:07;;;;;;;13.85;8.10;;;;;;;4.02;73.60;101785.81;3590997;39;20075;-63
2022/04/10 06:17:32;;;;;;;13.32;7.95;;;;;;;4.19;73.22;101797.00;3579345;39;20144;-62
2022/04/10 06:19:59;;;;;;;11.45;7.90;;;;;;;4.03;73.78;101750.34;3592332;39;20059;-63
2022/04/10 06:22:26;;;;;;;13.43;7.68;;;;;;;3.93;72.63;101723.03;3586025;39;20390;-62
2022/04/10 06:24:53;;;;;;;10.52;7.68;;;;;;;4.57;72.89;101799.81;3588957;39;20067;-65
2022/04/10 06:27:19;;;;;;;13.45;7.43;;;;;;;4.72;72.06;101806.56;3588472;39;20066;-61
2022/04/10 06:29:46;;;;;;;11.60;7.38;;;;;;;4.83;72.20;101800.09;3585733;39;20160;-63
2022/04/10 06:32:13;;;;;;;11.77;7.40;;;;;;;5.03;71.38;101812.09;3590573;39;20071;-64
2022/04/10 06:34:39;;;;;;;14.68;7.50;;;;;;;5.22;71.24;101809.88;3579194;39;20071;-62
2022/04/10 06:37:05;;;;;;;15.65;7.28;;;;;;;5.45;70.38;101806.63;3588357;39;20184;-63
2022/04/10 06:39:31;;;;;;;13.52;7.07;;;;;;;5.74;69.57;101825.47;3586727;39;20063;-65
2022/04/10 06:41:57;;;;;;;13.48;6.95;;;;;;;6.02;69.18;101820.28;3590187;39;20120;-62
2022/04/10 06:44:23;;;;;;;11.00;7.15;;;;;;;6.33;68.03;101827.47;3585530;39;20059;-62
2022/04/10 06:46:48;;;;;;;10.95;7.10;;;;;;;6.63;66.55;101817.69;3589825;39;21363;-61
2022/04/10 06:49:14;;;;;;;12.88;6.68;;;;;;;6.90;65.95;101820.47;3582351;39;20066;-62
2022/04/10 06:51:40;;;;;;;8.93;5.80;;;;;;;7.18;64.62;101820.47;3589936;39;20059;-64
2022/04/10 06:54:07;;;;;;;10.68;6.45;;;;;;;7.42;64.14;101816.13;3584013;39;20051;-65
2022/04/10 06:56:33;;;;;;;11.07;5.85;;;;;;;7.75;63.47;101834.66;3591436;39;20069;-61
2022/04/10 06:58:59;;;;;;;9.82;5.75;;;;;;;7.95;62.18;101818.78;3583862;39;20087;-60
2022/04/10 07:01:25;;;;;;;11.20;5.85;;;;;;;8.13;61.61;101828.84;3591551;39;20081;-63
2022/04/10 07:03:51;;;;;;;12.85;6.32;;;;;;;8.20;61.35;101804.53;3584385;39;20070;-63
2022/04/10 07:06:16;;;;;;;10.32;6.30;;;;;;;8.56;60.87;101838.06;3588128;39;20047;-63
2022/04/10 07:08:42;;;;;;;11.05;5.70;;;;;;;7.90;59.53;101702.97;3590832;39;20071;-64
2022/04/10 07:11:07;;;;;;;11.45;5.97;;;;;;;8.81;59.11;101837.09;3584677;39;20060;-63
2022/04/10 07:13:33;;;;;;;12.43;6.28;;;;;;;8.90;59.14;101842.13;3590918;39;20059;-66
2022/04/10 07:15:59;;;;;;;11.43;5.97;;;;;;;8.36;57.84;101733.38;3581947;39;20075;-63
2022/04/10 07:18:24;;;;;;;8.00;5.65;;;;;;;9.20;57.97;101840.06;3591422;39;20067;-64
2022/04/10 07:20:50;;;;;;;11.23;5.95;;;;;;;9.35;57.70;101838.53;3581405;39;20063;-63
2022/04/10 07:26:01;;;;;;;9.23;4.80;;;;;;;9.77;55.95;101845.78;3581803;39;20132;-63
2022/04/10 07:28:26;;;;;;;11.07;5.00;;;;;;;9.87;54.92;101847.13;3592455;39;20095;-65
2022/04/10 07:30:52;;;;;;;9.77;4.63;;;;;;;10.07;54.45;101838.22;3582426;39;20066;-62
2022/04/10 07:33:17;;;;;;;11.52;5.00;;;;;;;10.04;53.87;101814.16;3590580;39;20052;-62
2022/04/10 07:35:45;;;;;;;9.27;4.40;;;;;;;9.28;54.30;101670.72;3582250;39;20189;-62
2022/04/10 07:38:11;;;;;;;10.45;4.50;;;;;;;10.45;53.40;101841.91;3590772;39;20059;-64
2022/04/10 07:40:38;;;;;;;7.47;4.45;;;;;;;10.61;53.28;101854.69;3591587;39;20062;-63
2022/04/10 07:43:05;;;;;;;11.38;4.72;;;;;;;10.24;52.23;101772.97;3585896;39;20070;-63
2022/04/10 07:48:16;;;;;;;11.45;4.95;;;;;;;10.86;52.32;101849.91;3592388;39;20055;-64
2022/04/10 07:50:42;;;;;;;11.43;4.88;;;;;;;11.12;51.94;101863.94;3581738;39;20565;-62
2022/04/10 07:53:08;;;;;;;8.38;4.47;;;;;;;11.29;50.96;101876.59;3590822;39;20071;-63
2022/04/10 07:55:33;;;;;;;11.50;4.30;;;;;;;11.43;50.23;101867.88;3591143;39;20055;-63
2022/04/10 07:58:00;;;;;;;7.40;4.05;;;;;;;11.44;50.19;101877.69;3586248;39;20071;-61
2022/04/10 08:00:32;;;;;;;8.02;4.95;;;;;;;11.44;50.76;101864.22;3591759;39;20321;-65
2022/04/10 08:02:58;;;;;;;11.77;5.18;;;;;;;11.65;50.43;101884.72;3581394;39;20082;-62
2022/04/10 08:05:24;;;;;;;8.02;4.43;;;;;;;11.87;49.92;101887.25;3591679;39;20070;-63
2022/04/10 08:07:50;;;;;;;7.60;3.13;;;;;;;12.05;47.68;101885.44;3580187;39;20087;-64
2022/04/10 08:10:16;;;;;;;7.55;3.30;;;;;;;12.28;47.41;101897.75;3592707;39;20100;-63
2022/04/10 08:12:44;;;;;;;7.25;3.20;;;;;;;10.81;46.76;101626.00;3590770;39;20124;-62
2022/04/10 08:15:11;;;;;;;9.95;3.40;;;;;;;12.05;46.76;101834.22;3587370;39;20712;-63
2022/04/10 08:17:38;;;;;;;11.55;3.38;;;;;;;12.54;46.44;101901.75;3584761;39;20051;-64
2022/04/10 08:20:05;;;;;;;4.97;3.28;;;;;;;12.69;46.27;101892.88;3589337;39;20056;-64
2022/04/10 08:22:33;;;;;;;7.00;3.30;;;;;;;12.90;46.53;101889.94;3585963;39;20043;-63
2022/04/10 08:25:09;;;;;;;7.70;3.15;;;;;;;13.06;45.58;101896.25;3590204;39;20054;-61
2022/04/10 08:27:36;;;;;;;10.50;3.15;;;;;;;13.11;44.26;101887.91;3591375;39;20048;-64
2022/04/10 08:30:04;;;;;;;7.50;3.17;;;;;;;13.48;43.94;101897.56;3582945;39;20703;-63
2022/04/10 08:32:38;;;;;;;6.15;2.75;;;;;;;13.49;42.94;101899.28;3592107;39;20055;-63
2022/04/10 08:35:04;;;;;;;;;;;;;;;13.31;42.36;101857.09;3585370;39;20095;-62
2022/04/10 08:37:30;;;;;;;4.35;2.63;;;;;;;13.64;42.92;101897.53;3592386;39;20259;-64
2022/04/10 08:39:56;;;;;;;5.55;2.55;;;;;;;13.68;41.86;101845.94;3580362;39;20051;-63
2022/04/10 08:42:21;;;;;;;6.53;2.45;;;;;;;14.24;40.79;101894.91;3592988;39;20059;-64
2022/04/10 08:44:47;;;;;;;6.05;2.25;;;;;;;13.99;38.89;101905.44;3587093;39;20165;-63
2022/04/10 08:47:21;;;;;;;5.25;2.20;;;;;;;13.38;39.77;101907.09;3591243;39;20148;-63
2022/04/10 08:49:51;;;;;;;;;;;;;;;12.81;40.91;101909.31;3585493;39;20088;-62
2022/04/10 08:52:19;;;;;;;6.65;2.33;;;;;;;12.40;42.43;101909.69;3592078;39;19935;-63
2022/04/10 08:54:47;;;;;;;8.05;2.00;;;;;;;12.13;42.80;101925.47;3583793;39;20046;-60
2022/04/10 08:57:13;;;;;;;3.72;1.67;;;;;;;11.93;41.85;101904.94;3591887;39;20059;-63
2022/04/10 08:59:40;;;;;;;4.45;1.80;;;;;;;12.02;41.68;101923.31;3585197;39;20059;-63
2022/04/10 09:02:08;;;;;;;8.07;2.72;;;;;;;11.87;44.12;101922.28;3590056;39;20067;-62
2022/04/10 09:04:34;;;;;;;8.50;2.60;;;;;;;11.66;46.64;101931.38;3587384;39;20063;-62
2022/04/10 09:07:09;;;;;;;5.35;2.42;;;;;;;11.43;47.89;101925.28;3591774;39;20058;-61
2022/04/10 09:09:41;;;;;;;7.43;3.03;;;;;;;11.27;48.30;101919.75;3582603;39;20082;-63
2022/04/10 09:12:08;;;;;;;6.30;2.67;;;;;;;11.22;48.13;101921.78;3589529;39;20750;-63
2022/04/10 09:14:39;;;;;;;6.57;2.70;;;;;;;11.26;48.77;101931.47;3592026;39;20061;-63
2022/04/10 09:17:23;;;;;;;6.10;2.72;;;;;;;11.25;48.48;101932.41;3584432;39;20065;-64
2022/04/10 09:19:53;;;;;;;8.80;2.80;;;;;;;11.69;48.66;101932.09;3577190;39;22895;-64
2022/04/10 09:22:28;;;;;;;7.97;3.00;;;;;;;11.97;47.75;101928.06;3591512;39;20877;-63
2022/04/10 09:25:04;;;;;;;6.03;2.65;;;;;;;12.34;46.67;101929.78;3582585;39;20054;-65
2022/04/10 09:27:36;;;;;;;8.88;2.95;;;;;;;12.15;45.58;101937.06;3590077;39;20062;-63
2022/04/10 09:30:05;;;;;;;5.25;2.25;;;;;;;12.25;45.34;101931.13;3590391;39;20048;-64
2022/04/10 09:32:43;;;;;;;10.10;4.57;;;;;;;12.48;45.29;101904.78;3585777;39;20062;-64
2022/04/10 09:35:12;;;;;;;8.07;2.70;;;;;;;13.07;43.64;101921.44;3593660;39;20056;-65
2022/04/10 09:37:50;;;;;;;8.70;2.63;;;;;;;13.49;43.84;101922.72;3583187;39;20088;-64
2022/04/10 09:40:20;;;;;;;5.43;2.83;;;;;;;13.86;42.72;101914.25;3581073;39;20055;-63
2022/04/10 09:43:04;;;;;;;4.38;2.10;;;;;;;14.29;40.54;101918.94;3589883;39;20787;-65
2022/04/10 09:45:42;;;;;;;6.80;2.47;;;;;;;14.36;40.33;101918.47;3586657;39;20059;-62
2022/04/10 09:48:27;;;;;;;4.88;2.20;;;;;;;14.59;39.49;101919.84;3591087;39;20147;-62
2022/04/10 09:50:58;;;;;;;4.03;2.03;;;;;;;14.30;38.59;101917.97;3583877;39;20141;-63
2022/04/10 09:53:26;;;;;;;3.47;1.65;;;;;;;13.97;38.34;101900.09;3590112;39;20075;-62
2022/04/10 09:56:04;;;;;;;6.60;2.10;;;;;;;13.81;39.64;101920.88;3580102;39;20123;-63
2022/04/10 09:58:32;;;;;;;5.78;2.33;;;;;;;14.12;39.43;101926.25;3587385;39;20063;-62
2022/04/10 10:01:00;;;;;;;4.38;2.28;;;;;;;14.45;37.40;101927.88;3590917;39;20055;-64
2022/04/10 10:03:29;;;;;;;6.28;2.25;;;;;;;14.59;37.25;101916.25;3583876;39;20056;-62
2022/04/10 10:05:57;;;;;;;4.63;1.52;;;;;;;14.58;34.32;101912.66;3592992;39;20067;-63
2022/04/10 10:08:27;;;;;;;5.65;2.05;;;;;;;14.71;35.35;101917.31;3582808;39;20055;-62
2022/04/10 10:10:56;;;;;;;4.63;2.10;;;;;;;15.11;35.20;101904.88;3591343;39;20070;-63
2022/04/10 10:13:26;;;;;;;4.35;1.63;;;;;;;15.22;33.85;101877.09;3582936;39;20126;-62
2022/04/10 10:15:56;;;;;;;4.40;1.58;;;;;;;15.64;33.62;101915.94;3591889;39;20342;-63
2022/04/10 10:18:25;;;;;;;4.95;1.92;;;;;;;15.74;33.81;101914.38;3584383;39;20050;-63
2022/04/10 10:20:52;;;;;;;6.70;2.33;;;;;;;15.78;34.02;101915.91;3589798;39;20059;-62
2022/04/10 10:23:21;;;;;;;6.32;2.38;;;;;;;15.93;34.75;101909.47;3585006;39;20308;-64
2022/04/10 10:26:18;;;;;;;4.57;1.75;;;;;;;15.96;34.38;101911.97;3589607;39;20977;-63
2022/04/10 10:29:12;;;;;;;4.80;1.80;;;;;;;15.76;34.41;101850.06;3580057;39;20064;-63
2022/04/10 10:31:56;;;;;;;4.25;1.77;;;;;;;16.17;34.41;101908.75;3583047;39;20161;-63
2022/04/10 10:34:25;;;;;;;4.22;1.95;;;;;;;16.13;34.57;101905.38;3589423;39;21775;-62
2022/04/10 10:36:54;;;;;;;7.57;2.00;;;;;;;16.26;32.41;101900.00;3591504;39;20581;-63
2022/04/10 10:39:21;;;;;;;4.10;2.00;;;;;;;16.09;32.54;101905.72;3585831;39;20088;-61
2022/04/10 10:41:52;;;;;;;5.78;2.05;;;;;;;15.90;31.78;101898.81;3589912;39;20107;-63
2022/04/10 10:44:42;;;;;;;5.00;1.90;;;;;;;15.29;33.75;101897.41;3581123;39;20079;-62
2022/04/10 10:47:26;;;;;;;5.60;1.90;;;;;;;15.12;35.05;101900.31;3591324;39;20052;-62
2022/04/10 10:49:54;;;;;;;3.03;1.52;;;;;;;15.22;35.66;101899.66;3586009;39;20184;-62
2022/04/10 10:52:21;;;;;;;3.38;2.00;;;;;;;15.44;35.47;101899.09;3587280;39;20059;-62
2022/04/10 10:54:53;;;;;;;4.78;1.77;;;;;;;15.60;34.39;101889.97;3584822;39;20181;-63
2022/04/10 10:57:27;;;;;;;3.53;1.90;;;;;;;15.85;34.90;101898.25;3587934;39;20101;-61
2022/04/10 11:00:05;;;;;;;3.85;2.13;;;;;;;15.86;34.91;101904.53;3584826;39;21775;-63
2022/04/10 11:02:35;;;;;;;4.15;2.17;;;;;;;16.06;32.79;101897.78;3590975;39;20051;-63
2022/04/10 11:05:24;;;;;;;2.40;1.70;;;;;;;16.01;32.11;101898.94;3584910;39;20067;-62
2022/04/10 11:08:12;;;;;;;4.35;2.03;;;;;;;16.31;33.80;101897.84;3589652;39;20687;-64
2022/04/10 11:10:52;;;;;;;4.45;1.90;;;;;;;16.77;31.87;101897.38;3581158;39;20063;-63
2022/04/10 11:13:19;;;;;;;4.25;1.75;;;;;;;16.96;32.52;101890.63;3593177;39;20368;-62
2022/04/10 11:15:55;;;;;;;5.60;2.10;;;;;;;16.66;32.17;101910.81;3586361;39;20063;-64
2022/04/10 11:18:25;;;;;;;5.70;2.03;;;;;;;16.81;33.29;101896.19;3592276;39;20069;-62
2022/04/10 11:21:04;;;;;;;5.55;1.83;;;;;;;16.83;31.87;101868.91;3584771;39;20066;-63
2022/04/10 11:23:31;;;;;;;4.00;1.77;;;;;;;16.63;31.04;101890.16;3586480;39;20394;-60
2022/04/10 11:26:07;;;;;;;3.80;1.98;;;;;;;16.14;32.46;101888.16;3593810;39;20052;-63
2022/04/10 11:29:07;;;;;;;4.70;1.80;;;;;;;15.59;32.88;101889.09;3582576;39;20051;-62
2022/04/10 11:31:40;;;;;;;4.97;2.13;;;;;;;14.88;33.31;101832.38;3589129;39;20055;-61
2022/04/10 11:36:54;;;;;;;4.57;2.38;;;;;;;14.43;34.70;101881.13;3586651;39;20055;-63
2022/04/10 11:39:34;;;;;;;6.60;2.40;;;;;;;14.09;35.29;101885.84;3593864;39;20056;-63